METAR Data
IDs: Format: Raw Decoded Include TAF

Data at: 0901 UTC 03 Aug 2021

KAPC 030854Z AUTO 29007KT 10SM CLR 12/11 A3003 RMK AO2 SLP160 T01220106 57001
KAPC 030754Z AUTO VRB03KT 10SM CLR 12/11 A3003 RMK AO2 SLP160 T01220106 402720089
KAPC 030654Z AUTO 28003KT 10SM CLR 13/11 A3003 RMK AO2 SLP160 T01330106
KAPC 030554Z AUTO 00000KT 10SM CLR 14/10 A3003 RMK AO2 SLP161 T01390100 10261 20133 51009
KAPC 030454Z AUTO 00000KT 10SM CLR 16/11 A3003 RMK AO2 SLP158 T01560106
KAPC 030354Z AUTO 27009KT 10SM CLR 18/11 A3001 RMK AO2 SLP154 T01780106
KAPC 030254Z AUTO 28010KT 10SM CLR 21/11 A3000 RMK AO2 SLP151 T02110106 55003
KAPC 030154Z 28006KT 10SM CLR 24/11 A3000 RMK AO2 SLP150 T02390111
KAPC 030054Z 20011KT 10SM CLR 24/14 A3001 RMK AO2 SLP153 T02390144
KAPC 022354Z 20014KT 10SM CLR 26/13 A3001 RMK AO2 SLP154 T02610133 10272 20206 56019
KAPC 022254Z 20012KT 10SM CLR 27/12 A3003 RMK AO2 SLP160 T02670122
KAPC 022154Z 20010KT 10SM CLR 25/13 A3005 RMK AO2 SLP166 T02500128
KAPC 022054Z 21011KT 10SM CLR 25/13 A3007 RMK AO2 SLP173 T02500128 58012
KAPC 021954Z 20009KT 10SM CLR 23/12 A3009 RMK AO2 SLP179 T02330122
KAPC 021854Z 20009KT 10SM CLR 23/12 A3009 RMK AO2 SLP182 T02280117
KAPC 021754Z 26006KT 10SM CLR 21/11 A3010 RMK AO2 SLP185 T02060106 10211 20089 58005
KAPC 021654Z 28008KT 10SM CLR 19/11 A3011 RMK AO2 SLP187 T01940111
KAPC 021554Z 30009KT 10SM CLR 17/11 A3012 RMK AO2 SLP190 T01720111
KAPC 021454Z 31005KT 10SM CLR 14/11 A3012 RMK AO2 SLP191 T01440111 53015
KAPC 021354Z 33004KT 10SM CLR 10/09 A3011 RMK AO2 SLP186 T01000094
KAPC 021254Z AUTO 30005KT 10SM CLR 10/09 A3009 RMK AO2 SLP181 T01000089
KAPC 021154Z AUTO 29005KT 10SM CLR 11/09 A3008 RMK AO2 SLP176 T01110094 10156 20106 55001
KAPC 021054Z AUTO 28005KT 10SM CLR 12/11 A3007 RMK AO2 SLP175 T01220106
KAPC 020954Z AUTO 27007KT 10SM CLR 12/11 A3007 RMK AO2 SLP175 T01220106
KAPC 020854Z AUTO 28008KT 10SM CLR 14/11 A3008 RMK AO2 SLP177 T01390111 50002
KAPC 020754Z AUTO 27008KT 10SM CLR 14/11 A3009 RMK AO2 SLP179 T01390111 402500128
KAPC 020654Z AUTO 27010KT 10SM CLR 15/12 A3008 RMK AO2 SLP178 T01500117
KAPC 020554Z AUTO 27013KT 10SM CLR 16/12 A3007 RMK AO2 SLP175 T01560117 10239 20156 52018
KAPC 020454Z AUTO 26014KT 10SM CLR 16/12 A3006 RMK AO2 SLP169 T01610122
KAPC 020354Z AUTO 26016KT 10SM CLR 18/12 A3004 RMK AO2 SLP164 T01780122
KAPC 020254Z 27015KT 10SM CLR 21/12 A3002 RMK AO2 WSHFT 0149 SLP158 T02060122 53003
KAPC 020209Z 27014KT 10SM CLR 23/12 A3001 RMK AO2 WSHFT 0149 T02280122
KAPC 020154Z 26014G18KT 10SM CLR 23/12 A3001 RMK AO2 SLP153 T02280122
KAPC 020054Z 20017KT 10SM CLR 23/14 A3001 RMK AO2 SLP155 T02280139
KAPC 012354Z 20017G23KT 10SM CLR 24/14 A3001 RMK AO2 SLP154 60000 T02390144 10250 20183 58009
KAPC 012254Z 20018KT 10SM CLR 24/14 A3002 RMK AO2 RAE20B37E52 SLP158 P0000 T02440139
KAPC 012154Z 20016KT 10SM -RA CLR 24/14 A3003 RMK AO2 RAB53 SLP161 P0000 T02390139